Time;durP1;ratioP1;P1;durP2;ratioP2;P2;SDS_P1;SDS_P2;PMS_P1;PMS_P2;Temp;Humidity;BMP_temperature;BMP_pressure;BME280_temperature;BME280_humidity;BME280_pressure;Samples;Min_cycle;Max_cycle;Signal;HPM_P1;HPM_P2
2022/11/18 00:01:55;;;;;;;4.33;4.13;;;;;;;13.01;100.00;123937.69;5093296;28;20204;-60
2022/11/18 00:04:22;;;;;;;4.33;4.13;;;;;;;13.06;100.00;121951.47;5093703;28;20188;-59
2022/11/18 00:06:48;;;;;;;4.40;4.23;;;;;;;13.09;100.00;126950.31;5093676;28;20646;-60
2022/11/18 00:09:15;;;;;;;4.60;4.40;;;;;;;13.09;100.00;134617.84;5093184;28;20180;-59
2022/11/18 00:14:28;;;;;;;4.70;4.50;;;;;;;13.10;100.00;119301.47;5093558;28;20182;-59
2022/11/18 00:16:56;;;;;;;5.07;4.53;;;;;;;13.09;100.00;113322.34;5093166;28;20188;-60
2022/11/18 00:19:26;;;;;;;4.60;4.30;;;;;;;12.93;100.00;99721.94;5093088;28;20184;-60
2022/11/18 00:21:53;;;;;;;4.60;4.40;;;;;;;12.81;100.00;107306.31;5093008;28;20215;-60
2022/11/18 00:24:20;;;;;;;4.47;4.27;;;;;;;12.90;100.00;116272.53;5093024;28;20180;-60
2022/11/18 00:26:47;;;;;;;4.67;4.47;;;;;;;12.87;100.00;103347.06;5093223;28;20192;-59
2022/11/18 00:29:14;;;;;;;12.00;4.70;;;;;;;12.81;100.00;99041.06;5093007;28;20184;-59
2022/11/18 00:31:43;;;;;;;4.73;4.43;;;;;;;12.74;100.00;90126.59;5093080;28;20184;-59
2022/11/18 00:34:12;;;;;;;5.07;4.87;;;;;;;12.64;100.00;94064.88;5092794;28;20192;-58
2022/11/18 00:36:39;;;;;;;4.50;4.10;;;;;;;12.50;100.00;81211.94;5093076;28;20603;-59
2022/11/18 00:39:06;;;;;;;5.40;4.90;;;;;;;12.49;100.00;79569.88;5092647;28;20239;-60
2022/11/18 00:44:14;;;;;;;5.10;4.80;;;;;;;12.19;100.00;59577.31;5092391;28;20196;-60
2022/11/18 00:46:40;;;;;;;4.20;4.03;;;;;;;12.05;100.00;56956.00;5092979;28;20188;-60
2022/11/18 00:49:09;;;;;;;4.77;4.47;;;;;;;12.06;100.00;55328.38;5092860;28;20203;-60
2022/11/18 00:51:36;;;;;;;5.37;4.87;;;;;;;12.06;100.00;53049.13;5093186;28;20188;-61
2022/11/18 00:54:04;;;;;;;4.10;3.90;;;;;;;11.72;100.00;49442.41;5092779;28;20184;-59
2022/11/18 00:56:30;;;;;;;4.80;4.60;;;;;;;11.71;100.00;48791.81;5092608;28;20184;-60
2022/11/18 00:58:57;;;;;;;4.77;4.47;;;;;;;11.55;100.00;49103.34;5092635;28;20210;-59
2022/11/18 01:01:24;;;;;;;10.60;5.63;;;;;;;11.27;100.00;50053.38;5092618;28;20638;-60
2022/11/18 01:03:51;;;;;;;5.40;5.00;;;;;;;11.27;100.00;45510.66;5092502;28;20218;-60
2022/11/18 01:06:20;;;;;;;5.07;4.77;;;;;;;11.41;100.00;40659.50;5092502;28;20237;-60
2022/11/18 01:08:47;;;;;;;5.67;5.37;;;;;;;11.49;100.00;38074.41;5092209;28;20278;-60
2022/11/18 01:13:58;;;;;;;4.80;4.60;;;;;;;11.62;100.00;51058.41;5092402;28;20195;-60
2022/11/18 01:16:27;;;;;;;5.17;4.93;;;;;;;11.69;100.00;50739.59;5092097;28;20185;-60
2022/11/18 01:18:54;;;;;;;7.93;4.67;;;;;;;11.60;100.00;53982.81;5092015;28;20184;-60
2022/11/18 01:21:23;;;;;;;6.27;5.97;;;;;;;11.73;100.00;56273.22;5091573;28;20180;-60
2022/11/18 01:23:49;;;;;;;5.13;4.93;;;;;;;11.66;100.00;57569.25;5091923;28;20212;-60
2022/11/18 01:26:17;;;;;;;6.70;6.30;;;;;;;11.62;100.00;66041.69;5091980;28;20196;-59
2022/11/18 01:28:45;;;;;;;8.33;6.67;;;;;;;11.48;100.00;76813.47;5091839;28;20198;-60
2022/11/18 01:31:14;;;;;;;7.83;7.23;;;;;;;11.41;100.00;79424.81;5092210;28;20676;-60
2022/11/18 01:33:42;;;;;;;8.60;5.90;;;;;;;11.49;100.00;74195.94;5091700;28;20718;-60
2022/11/18 01:36:16;;;;;;;6.33;5.83;;;;;;;11.40;100.00;68955.41;5091873;28;20195;-60
2022/11/18 01:38:44;;;;;;;7.70;7.20;;;;;;;11.33;100.00;66009.78;5092075;28;20183;-59
2022/11/18 01:41:12;;;;;;;7.63;6.97;;;;;;;11.28;100.00;63394.47;5092067;28;20196;-59
2022/11/18 01:43:51;;;;;;;7.00;6.40;;;;;;;11.21;100.00;59477.88;5091596;28;20330;-60
2022/11/18 01:46:20;;;;;;;7.77;5.67;;;;;;;11.12;100.00;56539.91;5091675;28;20183;-59
2022/11/18 01:48:50;;;;;;;6.03;5.57;;;;;;;10.99;100.00;51003.22;5091602;28;20199;-61
2022/11/18 01:51:20;;;;;;;6.27;5.77;;;;;;;10.99;100.00;49380.69;5091638;28;20195;-59
2022/11/18 01:53:53;;;;;;;6.00;5.70;;;;;;;10.98;100.00;46784.31;5091609;28;20194;-60
2022/11/18 01:56:23;;;;;;;5.83;5.53;;;;;;;11.10;100.00;46145.56;5091918;28;20224;-59
2022/11/18 01:58:54;;;;;;;5.83;5.43;;;;;;;11.13;100.00;45499.47;5091521;28;20290;-59
2022/11/18 02:01:21;;;;;;;6.83;6.33;;;;;;;11.10;100.00;42256.28;5091573;28;20187;-59
2022/11/18 02:03:49;;;;;;;5.73;5.47;;;;;;;10.89;100.00;47749.72;5091763;28;20581;-59
2022/11/18 02:06:16;;;;;;;7.00;6.57;;;;;;;10.96;100.00;43541.72;5091515;28;20184;-59
2022/11/18 02:08:43;;;;;;;9.37;6.70;;;;;;;10.90;100.00;39328.97;5091770;28;20188;-59
2022/11/18 02:13:55;;;;;;;8.20;6.60;;;;;;;10.97;100.00;35130.78;5091201;28;20198;-59
2022/11/18 02:16:30;;;;;;;7.07;6.57;;;;;;;10.99;100.00;36424.56;5091387;28;20188;-60
2022/11/18 02:19:02;;;;;;;7.03;6.43;;;;;;;10.53;100.00;36072.03;5091402;28;20227;-59
2022/11/18 02:21:42;;;;;;;7.17;6.57;;;;;;;10.10;100.00;27019.34;5091367;28;20184;-59
2022/11/18 02:24:29;;;;;;;7.53;6.97;;;;;;;9.74;100.00;19610.47;5091196;28;20211;-61
2022/11/18 02:27:29;;;;;;;11.33;7.43;;;;;;;9.43;100.00;15110.47;5091640;28;20188;-60
2022/11/18 02:30:07;;;;;;;7.50;6.80;;;;;;;9.56;100.00;13512.53;5091327;28;20355;-59
2022/11/18 02:32:41;;;;;;;7.07;6.40;;;;;;;9.30;100.00;13825.50;5093188;28;20254;-59
2022/11/18 02:35:16;;;;;;;15.20;6.83;;;;;;;9.41;100.00;13828.72;5095442;28;20541;-59
2022/11/18 02:37:49;;;;;;;6.87;6.27;;;;;;;9.13;100.00;14461.25;5095303;28;20188;-59
2022/11/18 02:40:22;;;;;;;6.93;6.00;;;;;;;9.26;100.00;12223.88;5094972;28;20188;-60
2022/11/18 02:42:53;;;;;;;6.83;6.23;;;;;;;8.96;100.00;9338.91;5095142;28;20696;-60
2022/11/18 02:45:22;;;;;;;6.67;6.10;;;;;;;8.93;100.00;8699.09;5094907;28;20271;-59
2022/11/18 02:47:52;;;;;;;8.07;6.20;;;;;;;9.13;100.00;8063.88;5095149;28;20612;-60
2022/11/18 02:50:24;;;;;;;9.60;7.67;;;;;;;9.05;100.00;8062.41;5095107;28;20188;-59
2022/11/18 02:52:55;;;;;;;7.77;6.97;;;;;;;9.03;100.00;6145.53;5094719;28;20191;-60
2022/11/18 02:55:23;;;;;;;7.43;6.70;;;;;;;9.15;100.00;5189.25;5094679;28;20184;-59
2022/11/18 02:57:51;;;;;;;7.43;6.70;;;;;;;9.28;100.00;3594.56;5094686;28;20187;-60
2022/11/18 03:00:18;;;;;;;7.70;7.07;;;;;;;9.34;100.00;3914.53;5094935;28;20188;-59
2022/11/18 03:02:49;;;;;;;7.20;6.57;;;;;;;9.33;100.00;5511.13;5094508;28;20204;-59
2022/11/18 03:05:23;;;;;;;7.33;6.43;;;;;;;9.43;100.00;5832.03;5094858;28;20635;-59
2022/11/18 03:07:55;;;;;;;10.60;6.97;;;;;;;9.32;100.00;6469.34;5094427;28;20272;-60
2022/11/18 03:10:27;;;;;;;7.93;7.10;;;;;;;9.33;100.00;6149.94;5094611;28;20233;-59
2022/11/18 03:13:04;;;;;;;7.00;6.50;;;;;;;9.27;100.00;6149.03;5094679;28;20184;-60
2022/11/18 03:15:37;;;;;;;6.87;6.27;;;;;;;9.23;100.00;5190.28;5094665;28;20665;-59
2022/11/18 03:18:16;;;;;;;8.17;6.80;;;;;;;9.17;100.00;4550.97;5094297;28;20180;-60
2022/11/18 03:20:49;;;;;;;6.63;6.30;;;;;;;9.14;100.00;7744.41;5094199;28;20186;-60
2022/11/18 03:23:24;;;;;;;10.83;5.80;;;;;;;8.82;100.00;10614.41;5094404;28;20261;-58
2022/11/18 03:25:54;;;;;;;7.30;6.60;;;;;;;8.85;100.00;10934.66;5094445;28;20179;-59
2022/11/18 03:28:28;;;;;;;9.73;6.23;;;;;;;8.80;100.00;10613.84;5094385;28;20649;-59
2022/11/18 03:30:59;;;;;;;12.17;8.20;;;;;;;8.85;100.00;9336.56;5093963;28;20188;-59
2022/11/18 03:33:34;;;;;;;12.13;7.50;;;;;;;8.82;100.00;7738.72;5093771;28;20232;-59
2022/11/18 03:36:05;;;;;;;7.73;6.77;;;;;;;8.73;100.00;5821.75;5093887;28;20180;-60
2022/11/18 03:38:37;;;;;;;12.37;6.60;;;;;;;8.41;100.00;3266.41;5093794;28;20184;-60
2022/11/18 03:41:08;;;;;;;12.60;7.10;;;;;;;8.49;100.00;2311.06;5093840;28;20194;-59
2022/11/18 03:43:39;;;;;;;9.10;6.67;;;;;;;8.45;100.00;1673.41;5093196;28;20208;-59
2022/11/18 03:46:11;;;;;;;7.43;6.63;;;;;;;8.47;100.00;1036.44;5093963;28;20524;-59
2022/11/18 03:48:48;;;;;;;16.40;7.00;;;;;;;8.55;100.00;399.91;5093990;28;20558;-59
2022/11/18 03:51:19;;;;;;;9.30;6.60;;;;;;;8.57;100.00;81.50;5093702;28;20187;-60
2022/11/18 03:53:54;;;;;;;8.23;7.67;;;;;;;8.59;100.00;81.63;5093578;28;20206;-60
2022/11/18 03:56:29;;;;;;;12.50;7.17;;;;;;;8.69;100.00;-236.41;5093842;28;20194;-60
2022/11/18 03:59:03;;;;;;;8.87;6.80;;;;;;;8.57;100.00;400.03;5093582;28;20188;-59
2022/11/18 04:01:38;;;;;;;10.53;6.27;;;;;;;8.69;100.00;1356.59;5093433;28;20194;-59
2022/11/18 04:04:07;;;;;;;8.83;7.77;;;;;;;8.72;100.00;1356.81;5093581;28;20559;-59
2022/11/18 04:06:39;;;;;;;9.50;7.93;;;;;;;8.85;100.00;82.94;5093650;28;20211;-60
2022/11/18 04:09:14;;;;;;;6.73;6.13;;;;;;;8.85;100.00;1357.75;5093306;28;20188;-60
2022/11/18 04:12:05;;;;;;;7.40;6.80;;;;;;;8.87;100.00;1039.13;5093161;28;20194;-61
2022/11/18 04:14:34;;;;;;;6.87;6.23;;;;;;;8.99;100.00;83.69;5093172;28;20279;-59
2022/11/18 04:17:06;;;;;;;7.87;7.17;;;;;;;9.06;100.00;-872.06;5093377;28;20195;-60
2022/11/18 04:19:35;;;;;;;7.47;6.70;;;;;;;9.15;100.00;-1827.72;5093033;28;20184;-60
2022/11/18 04:22:01;;;;;;;7.10;6.70;;;;;;;9.26;100.00;-2146.13;5093016;28;20194;-60
2022/11/18 04:24:29;;;;;;;7.50;6.83;;;;;;;9.40;100.00;-1827.16;5092971;28;20212;-59
2022/11/18 04:26:55;;;;;;;13.17;7.23;;;;;;;9.50;100.00;-551.53;5092891;28;20188;-59
2022/11/18 04:29:23;;;;;;;17.43;8.33;;;;;;;9.49;100.00;2000.72;5092883;28;20275;-59
2022/11/18 04:31:50;;;;;;;12.67;8.53;;;;;;;9.53;100.00;4555.53;5092933;28;20554;-60
2022/11/18 04:34:17;;;;;;;9.97;8.20;;;;;;;9.48;100.00;9029.59;5092801;28;20186;-59
2022/11/18 04:36:45;;;;;;;9.23;8.00;;;;;;;9.54;100.00;8710.84;5093085;28;20233;-59
2022/11/18 04:39:12;;;;;;;27.67;9.73;;;;;;;9.60;100.00;9031.97;5092996;28;20184;-60
2022/11/18 04:41:57;;;;;;;45.47;21.73;;;;;;;9.53;100.00;9350.38;5092888;28;20639;-60
2022/11/18 04:44:26;;;;;;;61.90;29.07;;;;;;;9.60;100.00;8072.31;5093289;28;20208;-59
2022/11/18 04:46:53;;;;;;;38.07;22.33;;;;;;;9.54;100.00;7431.81;5092618;28;20188;-59
2022/11/18 04:49:20;;;;;;;12.37;11.17;;;;;;;9.55;100.00;5514.22;5092611;28;20192;-60
2022/11/18 04:51:49;;;;;;;15.27;11.97;;;;;;;9.58;100.00;3597.91;5092570;28;20184;-59
2022/11/18 04:54:17;;;;;;;22.37;15.30;;;;;;;9.46;100.00;3596.59;5091905;28;20185;-60
2022/11/18 04:56:45;;;;;;;25.17;15.20;;;;;;;9.23;100.00;3274.88;5092540;28;20627;-61
2022/11/18 04:59:13;;;;;;;38.10;19.30;;;;;;;9.09;100.00;3592.50;5092249;28;20196;-61
2022/11/18 05:01:41;;;;;;;24.23;15.27;;;;;;;9.02;100.00;3591.78;5092334;28;20223;-59
2022/11/18 05:04:08;;;;;;;34.17;17.87;;;;;;;9.13;100.00;3592.94;5092528;28;20658;-59
2022/11/18 05:06:35;;;;;;;43.93;16.43;;;;;;;9.11;100.00;3592.78;5092553;28;20325;-59
2022/11/18 05:09:04;;;;;;;30.73;15.27;;;;;;;9.12;100.00;2954.72;5092173;28;20184;-60
2022/11/18 05:14:15;;;;;;;36.90;12.20;;;;;;;9.14;100.00;7424.91;5092151;28;20170;-60
2022/11/18 05:16:42;;;;;;;38.87;12.27;;;;;;;9.23;100.00;6787.41;5092079;28;20192;-59
2022/11/18 05:19:09;;;;;;;34.10;14.20;;;;;;;9.29;100.00;5829.97;5091980;28;20187;-59
2022/11/18 05:21:36;;;;;;;37.40;18.47;;;;;;;9.15;100.00;2954.97;5092405;28;20216;-60
2022/11/18 05:24:05;;;;;;;95.43;42.87;;;;;;;9.49;100.00;724.34;5091863;28;20204;-59
2022/11/18 05:26:32;;;;;;;49.83;26.20;;;;;;;9.63;100.00;-1507.78;5091957;28;20184;-59
2022/11/18 05:28:59;;;;;;;26.83;15.23;;;;;;;9.71;100.00;-3420.63;5092192;28;20693;-60
2022/11/18 05:31:26;;;;;;;30.50;21.00;;;;;;;9.83;100.00;-3739.44;5092143;28;20188;-59
2022/11/18 05:33:53;;;;;;;19.50;13.03;;;;;;;9.88;100.00;-869.03;5091978;28;20231;-59
2022/11/18 05:36:21;;;;;;;23.53;13.77;;;;;;;9.78;100.00;1045.31;5092137;28;20198;-59
2022/11/18 05:38:49;;;;;;;18.50;12.10;;;;;;;10.04;100.00;3283.31;5091979;28;20554;-60
2022/11/18 05:43:58;;;;;;;101.53;21.80;;;;;;;10.58;100.00;10012.59;5091419;28;20216;-59
2022/11/18 05:46:26;;;;;;;107.30;22.30;;;;;;;11.11;100.00;18696.22;5092043;28;20183;-59
2022/11/18 05:48:53;;;;;;;38.40;15.47;;;;;;;11.43;100.00;30635.13;5090708;28;20183;-59
2022/11/18 05:51:20;;;;;;;57.37;17.17;;;;;;;11.59;100.00;40672.06;5090307;28;20184;-59
2022/11/18 05:53:50;;;;;;;83.50;19.87;;;;;;;12.10;100.00;63157.28;5091928;28;20688;-60
2022/11/18 05:56:22;;;;;;;70.60;18.00;;;;;;;12.25;100.00;95320.31;5092095;28;20188;-60
2022/11/18 05:58:49;;;;;;;67.13;17.63;;;;;;;12.75;100.00;107626.31;5091924;28;20766;-60
2022/11/18 06:01:21;;;;;;;61.50;18.03;;;;;;;13.20;100.00;128305.50;5091828;28;20588;-60
2022/11/18 06:03:48;;;;;;;51.10;17.20;;;;;;;13.60;100.00;149456.50;5091754;28;20606;-57
2022/11/18 06:06:19;;;;;;;59.27;15.40;;;;;;;13.96;100.00;149547.72;5093025;28;20625;-57
2022/11/18 06:08:50;;;;;;;52.30;15.70;;;;;;;14.00;100.00;149557.84;5095760;28;20245;-56
2022/11/18 06:11:20;;;;;;;54.53;14.90;;;;;;;14.34;100.00;149641.56;5094631;28;20190;-57
2022/11/18 06:13:51;;;;;;;81.97;17.73;;;;;;;14.49;100.00;149679.63;5095703;28;20242;-57
2022/11/18 06:16:22;;;;;;;79.97;16.60;;;;;;;14.88;100.00;149777.28;5095718;28;20184;-57
2022/11/18 06:18:49;;;;;;;68.30;17.00;;;;;;;15.51;100.00;149935.88;5095978;28;20554;-59
2022/11/18 06:21:16;;;;;;;57.43;15.57;;;;;;;15.82;100.00;150014.59;5095426;28;20199;-59
2022/11/18 06:23:43;;;;;;;48.97;17.67;;;;;;;16.31;100.00;150137.69;5095546;28;20585;-58
2022/11/18 06:26:11;;;;;;;39.60;18.67;;;;;;;16.30;100.00;150135.16;5095353;28;20199;-59
2022/11/18 06:28:40;;;;;;;36.80;17.20;;;;;;;16.90;100.00;150286.34;5095218;28;20279;-58
2022/11/18 06:31:07;;;;;;;30.73;15.50;;;;;;;17.26;100.00;150375.28;5094920;28;20184;-58
2022/11/18 06:33:34;;;;;;;41.53;15.77;;;;;;;17.40;100.00;150409.59;5094895;28;20269;-58
2022/11/18 06:36:01;;;;;;;33.17;13.57;;;;;;;17.79;100.00;150508.72;5094899;28;20202;-58
2022/11/18 06:38:28;;;;;;;35.27;13.13;;;;;;;18.50;100.00;150688.00;5095224;28;20566;-59
2022/11/18 06:40:59;;;;;;;34.43;13.30;;;;;;;18.95;100.00;150800.00;5094957;28;20198;-59
2022/11/18 06:43:44;;;;;;;28.70;13.33;;;;;;;18.90;100.00;150787.25;5095183;28;20627;-59
2022/11/18 06:48:59;;;;;;;31.60;13.60;;;;;;;19.82;100.00;151018.88;5094856;28;20180;-59
2022/11/18 06:51:26;;;;;;;57.57;20.67;;;;;;;20.65;100.00;151227.78;5094844;28;20188;-59
2022/11/18 06:53:54;;;;;;;41.53;22.00;;;;;;;21.51;100.00;151444.44;5094480;28;20658;-59
2022/11/18 06:56:21;;;;;;;60.30;21.88;;;;;;;21.97;100.00;151560.47;5094903;28;20192;-60
2022/11/18 06:58:53;;;;;;;45.25;16.42;;;;;;;21.76;100.00;151508.16;5094726;28;20659;-59
2022/11/18 07:01:23;;;;;;;44.73;15.50;;;;;;;22.09;100.00;151592.34;5094744;28;20355;-59
2022/11/18 07:03:51;;;;;;;44.55;15.68;;;;;;;22.94;99.05;151806.63;5094421;28;20581;-59
2022/11/18 07:06:20;;;;;;;54.75;16.25;;;;;;;23.52;93.68;151953.41;5094237;28;20180;-58
2022/11/18 07:08:47;;;;;;;65.57;16.35;;;;;;;23.36;94.73;151911.25;5094172;28;20237;-60
2022/11/18 07:11:16;;;;;;;41.38;16.70;;;;;;;23.26;96.89;151885.72;5094222;28;20214;-59
2022/11/18 07:13:44;;;;;;;61.33;17.90;;;;;;;21.88;100.00;151540.03;5093718;28;20202;-59
2022/11/18 07:16:13;;;;;;;39.40;17.65;;;;;;;21.10;100.00;151341.13;5093972;28;20662;-59
2022/11/18 07:18:43;;;;;;;79.43;21.07;;;;;;;20.56;100.00;151206.13;5093318;28;20210;-59
2022/11/18 07:21:11;;;;;;;64.97;20.73;;;;;;;19.91;100.00;151041.81;5094027;28;20188;-58
2022/11/18 07:23:39;;;;;;;50.37;20.20;;;;;;;19.70;100.00;150988.34;5093839;28;20191;-59
2022/11/18 07:26:06;;;;;;;91.93;23.27;;;;;;;19.54;100.00;150950.19;5094005;28;20185;-60
2022/11/18 07:28:33;;;;;;;66.30;21.13;;;;;;;19.46;100.00;150929.81;5094011;28;20550;-59
2022/11/18 07:31:02;;;;;;;64.77;20.77;;;;;;;19.31;100.00;150891.56;5094362;28;20231;-59
2022/11/18 07:33:29;;;;;;;65.57;19.93;;;;;;;19.07;100.00;150830.53;5093696;28;20227;-58
2022/11/18 07:36:01;;;;;;;55.90;18.33;;;;;;;19.32;100.00;150894.13;5092502;28;20221;-59
2022/11/18 07:38:28;;;;;;;59.57;18.63;;;;;;;19.28;100.00;150883.97;5096734;28;20199;-59
2022/11/18 07:40:55;;;;;;;70.57;19.57;;;;;;;19.27;100.00;150881.41;5094599;28;20550;-59
2022/11/18 07:43:22;;;;;;;63.77;17.77;;;;;;;20.32;100.00;151146.31;5093940;28;20188;-58
2022/11/18 07:45:51;;;;;;;41.13;18.17;;;;;;;21.38;100.00;151412.56;5093579;28;20211;-60
2022/11/18 07:48:23;;;;;;;20.53;13.60;;;;;;;20.77;100.00;151258.34;5093843;28;20220;-58
2022/11/18 07:50:51;;;;;;;27.80;13.50;;;;;;;19.78;100.00;151010.00;5093627;28;20270;-59
2022/11/18 07:53:19;;;;;;;15.03;12.20;;;;;;;19.51;100.00;150941.28;5094097;28;20238;-58
2022/11/18 07:55:46;;;;;;;22.13;12.47;;;;;;;19.65;100.00;150975.66;5093558;28;20195;-59
2022/11/18 07:58:13;;;;;;;24.47;13.60;;;;;;;20.39;100.00;151164.09;5093528;28;20223;-59
2022/11/18 08:00:40;;;;;;;27.23;13.97;;;;;;;20.83;100.00;151273.66;5093317;28;20283;-59
2022/11/18 08:03:07;;;;;;;23.73;12.77;;;;;;;21.80;100.00;151519.63;5093834;28;20639;-59
2022/11/18 08:05:34;;;;;;;24.23;13.02;;;;;;;22.29;100.00;151643.31;5093218;28;20215;-58
2022/11/18 08:08:01;;;;;;;22.92;12.10;;;;;;;23.48;100.00;151941.91;5093696;28;20641;-59
2022/11/18 08:10:30;;;;;;;38.03;12.85;;;;;;;24.50;100.00;152201.13;5093067;28;20191;-59
2022/11/18 08:12:57;;;;;;;17.35;11.68;;;;;;;24.65;100.00;152238.16;5093090;28;20184;-59
2022/11/18 08:15:25;;;;;;;14.32;10.50;;;;;;;24.28;100.00;152144.91;5093259;28;20683;-58
2022/11/18 08:17:52;;;;;;;18.70;11.57;;;;;;;23.39;100.00;151920.16;5093820;28;20634;-61
2022/11/18 08:20:19;;;;;;;17.17;10.65;;;;;;;23.68;100.00;151992.94;5092271;28;20246;-61
2022/11/18 08:22:46;;;;;;;13.75;11.77;;;;;;;23.22;100.00;151876.78;5093050;28;20270;-59
2022/11/18 08:25:13;;;;;;;31.77;12.93;;;;;;;23.80;100.00;152022.34;5093197;28;20218;-59
2022/11/18 08:27:42;;;;;;;20.73;11.48;;;;;;;23.98;100.00;152069.53;5093179;28;20184;-59
2022/11/18 08:30:10;;;;;;;16.65;11.68;;;;;;;24.29;100.00;152146.19;5092823;28;20248;-59
2022/11/18 08:32:37;;;;;;;11.73;9.80;;;;;;;25.04;100.00;152336.53;5092457;28;20694;-59
2022/11/18 08:35:05;;;;;;;12.82;10.15;;;;;;;25.77;100.00;152520.59;5092575;28;20190;-59
2022/11/18 08:37:31;;;;;;;9.52;8.65;;;;;;;26.00;97.58;152578.13;5092349;28;20624;-60
2022/11/18 08:39:58;;;;;;;23.85;9.25;;;;;;;26.59;94.27;152727.75;5092451;28;20706;-59
2022/11/18 08:42:25;;;;;;;13.50;8.48;;;;;;;27.16;89.03;152872.31;5092378;28;20219;-59
2022/11/18 08:44:54;;;;;;;9.50;8.57;;;;;;;27.57;84.85;152977.28;5092713;28;20222;-59
2022/11/18 08:47:21;;;;;;;9.85;8.85;;;;;;;28.28;82.14;153156.50;5092630;28;20210;-60
2022/11/18 08:49:48;;;;;;;9.95;7.93;;;;;;;29.10;77.47;153364.00;5091204;28;20267;-60
2022/11/18 08:52:15;;;;;;;5.95;5.45;;;;;;;29.21;75.54;153392.16;5092128;28;20271;-60
2022/11/18 08:54:42;;;;;;;4.82;4.53;;;;;;;27.45;83.69;152946.53;5092089;28;20287;-59
2022/11/18 08:57:09;;;;;;;5.63;5.32;;;;;;;25.05;100.00;152337.81;5092092;28;20198;-59
2022/11/18 08:59:35;;;;;;;6.93;5.57;;;;;;;23.71;100.00;152000.66;5092347;28;20184;-60
2022/11/18 09:02:06;;;;;;;11.45;6.20;;;;;;;21.91;100.00;151545.09;5092042;28;20219;-59
2022/11/18 09:04:33;;;;;;;5.47;5.00;;;;;;;21.36;100.00;151407.44;5092005;28;20207;-58
2022/11/18 09:07:00;;;;;;;5.75;5.35;;;;;;;20.93;100.00;151300.38;5092299;28;20616;-60
2022/11/18 09:09:27;;;;;;;6.38;5.88;;;;;;;21.00;100.00;151316.97;5092056;28;20269;-60
2022/11/18 09:11:54;;;;;;;6.70;6.13;;;;;;;20.33;100.00;151148.81;5092262;28;20557;-59
2022/11/18 09:14:21;;;;;;;7.13;6.47;;;;;;;20.53;100.00;151198.50;5092249;28;20188;-59
2022/11/18 09:16:47;;;;;;;8.83;6.73;;;;;;;20.38;100.00;151160.28;5090626;28;20638;-59
2022/11/18 09:19:17;;;;;;;11.00;6.63;;;;;;;20.07;100.00;151083.81;5092051;28;20186;-59
2022/11/18 09:21:45;;;;;;;7.57;7.07;;;;;;;20.11;100.00;151092.78;5092101;28;20180;-59
2022/11/18 09:24:12;;;;;;;7.67;6.03;;;;;;;19.97;100.00;151057.09;5091879;28;20191;-60
2022/11/18 09:26:39;;;;;;;6.03;5.40;;;;;;;20.00;100.00;151064.72;5091756;28;20188;-59
2022/11/18 09:29:07;;;;;;;6.43;6.13;;;;;;;19.70;100.00;150989.63;5091864;28;20180;-59
2022/11/18 09:31:34;;;;;;;11.17;7.33;;;;;;;19.66;100.00;150979.44;5092100;28;20203;-60
2022/11/18 09:34:01;;;;;;;7.53;6.80;;;;;;;19.42;100.00;150919.59;5091814;28;20231;-60
2022/11/18 09:36:29;;;;;;;7.87;7.10;;;;;;;19.23;100.00;150871.22;5091557;28;20180;-59
2022/11/18 09:38:59;;;;;;;6.77;6.20;;;;;;;19.50;100.00;150940.00;5092307;28;20219;-59
2022/11/18 09:41:40;;;;;;;6.83;6.43;;;;;;;20.15;100.00;151101.69;5091604;28;20638;-59
2022/11/18 09:44:19;;;;;;;7.63;7.00;;;;;;;20.48;100.00;151187.03;5091879;28;20568;-59
2022/11/18 09:46:59;;;;;;;15.60;7.00;;;;;;;21.18;100.00;151362.84;5091259;28;20283;-59
2022/11/18 09:49:30;;;;;;;6.57;6.17;;;;;;;21.59;100.00;151466.09;5091879;28;20573;-59
2022/11/18 09:52:03;;;;;;;6.85;6.13;;;;;;;20.83;100.00;151273.66;5091307;28;20195;-59
2022/11/18 09:54:34;;;;;;;7.80;7.20;;;;;;;20.38;100.00;151160.28;5089368;28;20287;-59
2022/11/18 09:57:02;;;;;;;7.87;7.13;;;;;;;19.93;100.00;151046.94;5091483;28;20237;-58
2022/11/18 09:59:32;;;;;;;13.97;7.83;;;;;;;20.33;100.00;151148.81;5091725;28;20215;-61
2022/11/18 10:02:28;;;;;;;7.97;7.17;;;;;;;21.46;100.00;151431.69;5090057;28;20184;-59
2022/11/18 10:04:55;;;;;;;8.30;7.50;;;;;;;21.41;100.00;151421.50;5071133;28;20563;-59
2022/11/18 10:07:32;;;;;;;8.25;7.25;;;;;;;21.76;100.00;151509.44;5071572;28;20736;-59
2022/11/18 10:10:03;;;;;;;7.10;6.43;;;;;;;21.75;100.00;151505.59;5071233;28;20184;-60
2022/11/18 10:12:41;;;;;;;9.40;7.72;;;;;;;21.09;100.00;151339.84;5071323;28;20262;-63
2022/11/18 10:15:20;;;;;;;7.68;6.90;;;;;;;21.64;100.00;151478.81;5071177;28;20183;-61
2022/11/18 10:17:56;;;;;;;7.43;6.97;;;;;;;21.82;100.00;151523.44;5071246;28;20210;-61
2022/11/18 10:20:32;;;;;;;10.48;7.03;;;;;;;22.09;100.00;151592.34;5070904;28;20194;-61
2022/11/18 10:23:10;;;;;;;7.57;6.97;;;;;;;22.22;100.00;151625.50;5071186;28;20180;-60
2022/11/18 10:25:37;;;;;;;7.38;6.78;;;;;;;22.35;100.00;151657.38;5083585;28;20239;-60
2022/11/18 10:28:17;;;;;;;7.85;6.93;;;;;;;22.56;100.00;151710.94;5090661;28;20202;-61
2022/11/18 10:30:44;;;;;;;8.02;7.32;;;;;;;22.21;100.00;151621.66;5091272;28;20188;-60
2022/11/18 10:33:28;;;;;;;9.05;8.25;;;;;;;22.97;100.00;151813.00;5090777;28;20825;-61
2022/11/18 10:36:26;;;;;;;6.70;6.20;;;;;;;23.63;100.00;151980.22;5091115;28;20220;-61
2022/11/18 10:39:13;;;;;;;8.93;7.00;;;;;;;24.38;100.00;152169.19;5091329;28;20681;-61
2022/11/18 10:41:47;;;;;;;7.35;6.20;;;;;;;25.84;100.00;152539.75;5091115;28;20194;-61
2022/11/18 10:44:35;;;;;;;6.63;6.22;;;;;;;26.57;100.00;152723.91;5091090;28;20192;-61
2022/11/18 10:47:25;;;;;;;7.45;6.55;;;;;;;25.93;100.00;152562.75;5090955;28;20188;-60
2022/11/18 10:49:52;;;;;;;7.05;6.15;;;;;;;24.84;100.00;152286.69;5089388;28;20191;-60
2022/11/18 10:52:19;;;;;;;11.75;6.88;;;;;;;24.38;100.00;152169.19;5091172;28;20242;-62
2022/11/18 10:55:07;;;;;;;7.22;6.50;;;;;;;24.80;100.00;152276.47;5094700;28;20196;-61
2022/11/18 10:57:37;;;;;;;6.95;6.65;;;;;;;25.07;100.00;152344.22;5094853;28;20180;-62
2022/11/18 11:00:08;;;;;;;7.80;7.07;;;;;;;25.85;100.00;152542.31;5094527;28;20658;-62
2022/11/18 11:02:39;;;;;;;7.82;7.13;;;;;;;26.49;100.00;152703.44;5095004;28;20680;-61
2022/11/18 11:05:17;;;;;;;8.40;6.70;;;;;;;27.23;100.00;152890.25;5094678;28;20577;-62
2022/11/18 11:07:44;;;;;;;7.28;6.63;;;;;;;27.04;100.00;152842.88;5094194;28;20271;-61
2022/11/18 11:10:22;;;;;;;8.13;7.30;;;;;;;26.44;100.00;152690.66;5094535;28;20651;-61
2022/11/18 11:12:57;;;;;;;8.10;7.32;;;;;;;26.00;100.00;152578.13;5094135;28;20276;-61
2022/11/18 11:15:28;;;;;;;7.32;6.85;;;;;;;24.68;100.00;152244.53;5094159;28;20188;-61
2022/11/18 11:20:45;;;;;;;8.73;8.10;;;;;;;21.56;100.00;151457.13;5094356;28;20195;-62
2022/11/18 11:23:13;;;;;;;9.52;8.05;;;;;;;20.81;100.00;151268.53;5094312;28;20219;-61
2022/11/18 11:25:49;;;;;;;8.40;7.72;;;;;;;20.37;100.00;151157.72;5094313;28;20210;-61
2022/11/18 11:28:27;;;;;;;8.80;8.03;;;;;;;19.73;100.00;150996.03;5094188;28;20183;-61
2022/11/18 11:31:06;;;;;;;8.57;7.90;;;;;;;19.87;100.00;151032.91;5094099;28;20188;-61
2022/11/18 11:33:43;;;;;;;9.90;9.33;;;;;;;19.43;100.00;150920.94;5093746;28;20571;-60
2022/11/18 11:36:21;;;;;;;11.10;10.00;;;;;;;19.30;100.00;150889.06;5094131;28;20195;-61
2022/11/18 11:39:07;;;;;;;11.80;9.77;;;;;;;19.31;100.00;150890.34;5093808;28;20191;-60
2022/11/18 11:41:44;;;;;;;12.87;9.43;;;;;;;18.81;100.00;150764.34;5093745;28;20190;-60
2022/11/18 11:44:30;;;;;;;10.50;9.70;;;;;;;18.79;100.00;150760.56;5093694;28;20231;-61
2022/11/18 11:49:53;;;;;;;12.77;11.17;;;;;;;18.83;100.00;133221.72;5093626;28;20273;-60
2022/11/18 11:52:31;;;;;;;12.40;11.27;;;;;;;18.85;100.00;132552.88;5093830;28;20661;-61
2022/11/18 11:55:13;;;;;;;12.03;10.93;;;;;;;18.78;100.00;121447.38;5093761;28;20634;-61
2022/11/18 11:57:58;;;;;;;12.90;11.47;;;;;;;18.75;100.00;109050.06;5093461;28;20180;-61
2022/11/18 12:00:27;;;;;;;13.00;11.70;;;;;;;18.73;100.00;107708.41;5093633;28;20206;-61